sensor_id;sensor_type;location;lat;lon;timestamp;temperature;humidity
18047;DHT22;9148;51.454;13.862;2022-08-19T00:01:23;22.10;97.10
18047;DHT22;9148;51.454;13.862;2022-08-19T00:03:50;22.10;97.50
18047;DHT22;9148;51.454;13.862;2022-08-19T00:06:16;22.10;97.90
18047;DHT22;9148;51.454;13.862;2022-08-19T00:08:42;22.10;98.20
18047;DHT22;9148;51.454;13.862;2022-08-19T00:11:09;22.10;98.50
18047;DHT22;9148;51.454;13.862;2022-08-19T00:13:35;22.10;98.90
18047;DHT22;9148;51.454;13.862;2022-08-19T00:16:01;22.10;99.20
18047;DHT22;9148;51.454;13.862;2022-08-19T00:18:28;22.10;99.40
18047;DHT22;9148;51.454;13.862;2022-08-19T00:20:54;22.10;99.70
18047;DHT22;9148;51.454;13.862;2022-08-19T00:23:20;22.10;99.90
18047;DHT22;9148;51.454;13.862;2022-08-19T00:25:46;22.10;99.90
18047;DHT22;9148;51.454;13.862;2022-08-19T00:28:11;22.10;99.90
18047;DHT22;9148;51.454;13.862;2022-08-19T00:30:37;22.10;99.90
18047;DHT22;9148;51.454;13.862;2022-08-19T00:33:03;22.10;99.90
18047;DHT22;9148;51.454;13.862;2022-08-19T00:35:29;22.10;99.90
18047;DHT22;9148;51.454;13.862;2022-08-19T00:37:55;22.10;99.90
18047;DHT22;9148;51.454;13.862;2022-08-19T00:40:21;22.20;99.90
18047;DHT22;9148;51.454;13.862;2022-08-19T00:42:47;22.20;99.90
18047;DHT22;9148;51.454;13.862;2022-08-19T00:45:19;22.10;99.90
18047;DHT22;9148;51.454;13.862;2022-08-19T00:47:46;22.10;99.90
18047;DHT22;9148;51.454;13.862;2022-08-19T00:50:15;22.10;99.90
18047;DHT22;9148;51.454;13.862;2022-08-19T00:52:46;22.10;99.90
18047;DHT22;9148;51.454;13.862;2022-08-19T00:55:25;22.10;99.90
18047;DHT22;9148;51.454;13.862;2022-08-19T00:58:03;22.10;99.90
18047;DHT22;9148;51.454;13.862;2022-08-19T01:00:32;22.00;99.90
18047;DHT22;9148;51.454;13.862;2022-08-19T01:03:05;22.00;99.90
18047;DHT22;9148;51.454;13.862;2022-08-19T01:05:32;22.00;99.90
18047;DHT22;9148;51.454;13.862;2022-08-19T01:08:01;21.90;99.90
18047;DHT22;9148;51.454;13.862;2022-08-19T01:10:31;22.00;99.90
18047;DHT22;9148;51.454;13.862;2022-08-19T01:13:01;21.90;99.90
18047;DHT22;9148;51.454;13.862;2022-08-19T01:15:31;21.90;99.90
18047;DHT22;9148;51.454;13.862;2022-08-19T01:18:04;21.80;99.90
18047;DHT22;9148;51.454;13.862;2022-08-19T01:20:32;21.90;99.90
18047;DHT22;9148;51.454;13.862;2022-08-19T01:23:00;21.80;99.90
18047;DHT22;9148;51.454;13.862;2022-08-19T01:25:42;21.70;99.90
18047;DHT22;9148;51.454;13.862;2022-08-19T01:28:25;21.70;99.90
18047;DHT22;9148;51.454;13.862;2022-08-19T01:30:53;21.70;99.90
18047;DHT22;9148;51.454;13.862;2022-08-19T01:33:20;21.70;99.90
18047;DHT22;9148;51.454;13.862;2022-08-19T01:35:46;21.70;99.90
18047;DHT22;9148;51.454;13.862;2022-08-19T01:38:25;21.70;99.90
18047;DHT22;9148;51.454;13.862;2022-08-19T01:40:52;21.70;99.90
18047;DHT22;9148;51.454;13.862;2022-08-19T01:43:18;21.70;99.90
18047;DHT22;9148;51.454;13.862;2022-08-19T01:45:45;21.70;99.90
18047;DHT22;9148;51.454;13.862;2022-08-19T01:48:12;21.70;99.90
18047;DHT22;9148;51.454;13.862;2022-08-19T01:50:38;21.70;99.90
18047;DHT22;9148;51.454;13.862;2022-08-19T01:53:09;21.70;99.90
18047;DHT22;9148;51.454;13.862;2022-08-19T01:55:38;21.70;99.90
18047;DHT22;9148;51.454;13.862;2022-08-19T01:58:05;21.70;99.90
18047;DHT22;9148;51.454;13.862;2022-08-19T02:00:35;21.70;99.90
18047;DHT22;9148;51.454;13.862;2022-08-19T02:03:00;21.70;99.90
18047;DHT22;9148;51.454;13.862;2022-08-19T02:05:26;21.70;99.90
18047;DHT22;9148;51.454;13.862;2022-08-19T02:07:55;21.70;99.90
18047;DHT22;9148;51.454;13.862;2022-08-19T02:10:22;21.60;99.90
18047;DHT22;9148;51.454;13.862;2022-08-19T02:12:49;21.60;99.90
18047;DHT22;9148;51.454;13.862;2022-08-19T02:15:15;21.60;99.90
18047;DHT22;9148;51.454;13.862;2022-08-19T02:17:44;21.50;99.90
18047;DHT22;9148;51.454;13.862;2022-08-19T02:20:10;21.50;99.90
18047;DHT22;9148;51.454;13.862;2022-08-19T02:22:36;21.40;99.90
18047;DHT22;9148;51.454;13.862;2022-08-19T02:25:02;21.40;99.90
18047;DHT22;9148;51.454;13.862;2022-08-19T02:27:29;21.40;99.90
18047;DHT22;9148;51.454;13.862;2022-08-19T02:29:56;21.40;99.90
18047;DHT22;9148;51.454;13.862;2022-08-19T02:32:21;21.30;99.90
18047;DHT22;9148;51.454;13.862;2022-08-19T02:34:47;21.40;99.90
18047;DHT22;9148;51.454;13.862;2022-08-19T02:37:14;21.40;99.90
18047;DHT22;9148;51.454;13.862;2022-08-19T02:40:06;21.40;99.90
18047;DHT22;9148;51.454;13.862;2022-08-19T02:42:32;21.40;99.90
18047;DHT22;9148;51.454;13.862;2022-08-19T02:44:58;21.40;99.90
18047;DHT22;9148;51.454;13.862;2022-08-19T02:47:23;21.50;99.90
18047;DHT22;9148;51.454;13.862;2022-08-19T02:49:49;21.50;99.90
18047;DHT22;9148;51.454;13.862;2022-08-19T02:52:15;21.60;99.90
18047;DHT22;9148;51.454;13.862;2022-08-19T02:54:41;21.60;99.90
18047;DHT22;9148;51.454;13.862;2022-08-19T02:57:07;21.60;99.90
18047;DHT22;9148;51.454;13.862;2022-08-19T02:59:33;21.60;99.90
18047;DHT22;9148;51.454;13.862;2022-08-19T03:01:59;21.60;99.90
18047;DHT22;9148;51.454;13.862;2022-08-19T03:04:25;21.60;99.90
18047;DHT22;9148;51.454;13.862;2022-08-19T03:06:51;21.50;99.90
18047;DHT22;9148;51.454;13.862;2022-08-19T03:09:19;21.50;99.90
18047;DHT22;9148;51.454;13.862;2022-08-19T03:11:45;21.50;99.90
18047;DHT22;9148;51.454;13.862;2022-08-19T03:14:11;21.40;99.90
18047;DHT22;9148;51.454;13.862;2022-08-19T03:16:47;21.40;99.90
18047;DHT22;9148;51.454;13.862;2022-08-19T03:19:16;21.40;99.90
18047;DHT22;9148;51.454;13.862;2022-08-19T03:21:44;21.40;99.90
18047;DHT22;9148;51.454;13.862;2022-08-19T03:24:10;21.40;99.90
18047;DHT22;9148;51.454;13.862;2022-08-19T03:26:42;21.30;99.90
18047;DHT22;9148;51.454;13.862;2022-08-19T03:29:10;21.30;99.90
18047;DHT22;9148;51.454;13.862;2022-08-19T03:31:37;21.30;99.90
18047;DHT22;9148;51.454;13.862;2022-08-19T03:34:04;21.30;99.90
18047;DHT22;9148;51.454;13.862;2022-08-19T03:36:30;21.40;99.90
18047;DHT22;9148;51.454;13.862;2022-08-19T03:38:58;21.40;99.90
18047;DHT22;9148;51.454;13.862;2022-08-19T03:41:28;21.40;99.90
18047;DHT22;9148;51.454;13.862;2022-08-19T03:43:57;21.40;99.90
18047;DHT22;9148;51.454;13.862;2022-08-19T03:46:26;21.30;99.90
18047;DHT22;9148;51.454;13.862;2022-08-19T03:48:54;21.30;99.90
18047;DHT22;9148;51.454;13.862;2022-08-19T03:51:24;21.30;99.90
18047;DHT22;9148;51.454;13.862;2022-08-19T03:53:53;21.30;99.90
18047;DHT22;9148;51.454;13.862;2022-08-19T03:56:20;21.30;99.90
18047;DHT22;9148;51.454;13.862;2022-08-19T03:58:46;21.40;99.90
18047;DHT22;9148;51.454;13.862;2022-08-19T04:01:15;21.40;99.90
18047;DHT22;9148;51.454;13.862;2022-08-19T04:03:44;21.40;99.90
18047;DHT22;9148;51.454;13.862;2022-08-19T04:06:22;21.50;99.90
18047;DHT22;9148;51.454;13.862;2022-08-19T04:08:50;21.50;99.90
18047;DHT22;9148;51.454;13.862;2022-08-19T04:11:22;21.60;99.90
18047;DHT22;9148;51.454;13.862;2022-08-19T04:13:50;21.60;99.90
18047;DHT22;9148;51.454;13.862;2022-08-19T04:16:19;21.60;99.90
18047;DHT22;9148;51.454;13.862;2022-08-19T04:18:47;21.60;99.90
18047;DHT22;9148;51.454;13.862;2022-08-19T04:21:18;21.60;99.90
18047;DHT22;9148;51.454;13.862;2022-08-19T04:23:46;21.70;99.90
18047;DHT22;9148;51.454;13.862;2022-08-19T04:26:13;21.70;99.90
18047;DHT22;9148;51.454;13.862;2022-08-19T04:28:44;21.70;99.90
18047;DHT22;9148;51.454;13.862;2022-08-19T04:31:16;21.60;99.90
18047;DHT22;9148;51.454;13.862;2022-08-19T04:33:46;21.70;99.90
18047;DHT22;9148;51.454;13.862;2022-08-19T04:36:17;21.70;99.90
18047;DHT22;9148;51.454;13.862;2022-08-19T04:38:44;21.80;99.90
18047;DHT22;9148;51.454;13.862;2022-08-19T04:41:10;21.80;99.90
18047;DHT22;9148;51.454;13.862;2022-08-19T04:43:55;21.90;99.90
18047;DHT22;9148;51.454;13.862;2022-08-19T04:46:21;22.00;99.90
18047;DHT22;9148;51.454;13.862;2022-08-19T04:48:46;22.10;99.90
18047;DHT22;9148;51.454;13.862;2022-08-19T04:51:12;22.10;99.90
18047;DHT22;9148;51.454;13.862;2022-08-19T04:53:40;22.10;99.90
18047;DHT22;9148;51.454;13.862;2022-08-19T04:56:12;22.20;99.90
18047;DHT22;9148;51.454;13.862;2022-08-19T04:58:42;22.10;99.90
18047;DHT22;9148;51.454;13.862;2022-08-19T05:01:12;22.20;99.90
18047;DHT22;9148;51.454;13.862;2022-08-19T05:03:39;22.30;99.90
18047;DHT22;9148;51.454;13.862;2022-08-19T05:06:11;22.30;99.90
18047;DHT22;9148;51.454;13.862;2022-08-19T05:08:39;22.30;99.90
18047;DHT22;9148;51.454;13.862;2022-08-19T05:11:17;22.40;99.90
18047;DHT22;9148;51.454;13.862;2022-08-19T05:13:46;22.40;99.90
18047;DHT22;9148;51.454;13.862;2022-08-19T05:16:15;22.40;99.90
18047;DHT22;9148;51.454;13.862;2022-08-19T05:18:42;22.40;99.90
18047;DHT22;9148;51.454;13.862;2022-08-19T05:21:27;22.40;99.90
18047;DHT22;9148;51.454;13.862;2022-08-19T05:24:13;22.40;99.90
18047;DHT22;9148;51.454;13.862;2022-08-19T05:26:42;22.50;99.90
18047;DHT22;9148;51.454;13.862;2022-08-19T05:29:12;22.50;99.90
18047;DHT22;9148;51.454;13.862;2022-08-19T05:31:39;22.50;99.90
18047;DHT22;9148;51.454;13.862;2022-08-19T05:34:06;22.50;99.90
18047;DHT22;9148;51.454;13.862;2022-08-19T05:36:38;22.40;99.90
18047;DHT22;9148;51.454;13.862;2022-08-19T05:39:11;22.40;99.90
18047;DHT22;9148;51.454;13.862;2022-08-19T05:41:43;22.50;99.90
18047;DHT22;9148;51.454;13.862;2022-08-19T05:44:09;22.40;99.90
18047;DHT22;9148;51.454;13.862;2022-08-19T05:46:37;22.30;99.90
18047;DHT22;9148;51.454;13.862;2022-08-19T05:49:04;22.30;99.90
18047;DHT22;9148;51.454;13.862;2022-08-19T05:51:31;22.30;99.90
18047;DHT22;9148;51.454;13.862;2022-08-19T05:53:58;22.30;99.90
18047;DHT22;9148;51.454;13.862;2022-08-19T05:56:24;22.30;99.90
18047;DHT22;9148;51.454;13.862;2022-08-19T05:58:50;22.20;99.90
18047;DHT22;9148;51.454;13.862;2022-08-19T06:01:17;22.20;99.90
18047;DHT22;9148;51.454;13.862;2022-08-19T06:03:44;22.20;99.90
18047;DHT22;9148;51.454;13.862;2022-08-19T06:06:11;22.10;99.90
18047;DHT22;9148;51.454;13.862;2022-08-19T06:08:38;22.10;99.90
18047;DHT22;9148;51.454;13.862;2022-08-19T06:11:18;22.10;99.90
18047;DHT22;9148;51.454;13.862;2022-08-19T06:13:46;22.10;99.90
18047;DHT22;9148;51.454;13.862;2022-08-19T06:16:16;22.00;99.90
18047;DHT22;9148;51.454;13.862;2022-08-19T06:18:52;22.00;99.90
18047;DHT22;9148;51.454;13.862;2022-08-19T06:21:23;22.00;99.90
18047;DHT22;9148;51.454;13.862;2022-08-19T06:23:51;22.00;99.90
18047;DHT22;9148;51.454;13.862;2022-08-19T06:26:18;22.00;99.90
18047;DHT22;9148;51.454;13.862;2022-08-19T06:28:45;21.90;99.90
18047;DHT22;9148;51.454;13.862;2022-08-19T06:31:14;21.90;99.90
18047;DHT22;9148;51.454;13.862;2022-08-19T06:33:46;21.90;99.90
18047;DHT22;9148;51.454;13.862;2022-08-19T06:36:37;21.90;99.90
18047;DHT22;9148;51.454;13.862;2022-08-19T06:39:12;21.80;99.90
18047;DHT22;9148;51.454;13.862;2022-08-19T06:41:44;21.80;99.90
18047;DHT22;9148;51.454;13.862;2022-08-19T06:44:12;21.80;99.90
18047;DHT22;9148;51.454;13.862;2022-08-19T06:46:38;21.80;99.90
18047;DHT22;9148;51.454;13.862;2022-08-19T06:49:05;21.80;99.90
18047;DHT22;9148;51.454;13.862;2022-08-19T06:51:34;21.80;99.90
18047;DHT22;9148;51.454;13.862;2022-08-19T06:53:59;21.80;99.90
18047;DHT22;9148;51.454;13.862;2022-08-19T06:56:28;21.80;99.90
18047;DHT22;9148;51.454;13.862;2022-08-19T06:59:18;21.80;99.90
18047;DHT22;9148;51.454;13.862;2022-08-19T07:01:47;21.80;99.90
18047;DHT22;9148;51.454;13.862;2022-08-19T07:04:18;21.70;99.90
18047;DHT22;9148;51.454;13.862;2022-08-19T07:06:45;21.70;99.90
18047;DHT22;9148;51.454;13.862;2022-08-19T07:09:14;21.70;99.90
18047;DHT22;9148;51.454;13.862;2022-08-19T07:11:48;21.70;99.90
18047;DHT22;9148;51.454;13.862;2022-08-19T07:14:16;21.60;99.90
18047;DHT22;9148;51.454;13.862;2022-08-19T07:16:44;21.60;99.90
18047;DHT22;9148;51.454;13.862;2022-08-19T07:19:11;21.60;99.90
18047;DHT22;9148;51.454;13.862;2022-08-19T07:21:37;21.60;99.90
18047;DHT22;9148;51.454;13.862;2022-08-19T07:24:04;21.60;99.90
18047;DHT22;9148;51.454;13.862;2022-08-19T07:26:31;21.60;99.90
18047;DHT22;9148;51.454;13.862;2022-08-19T07:28:59;21.60;99.90
18047;DHT22;9148;51.454;13.862;2022-08-19T07:31:27;21.60;99.90
18047;DHT22;9148;51.454;13.862;2022-08-19T07:33:55;21.60;99.90
18047;DHT22;9148;51.454;13.862;2022-08-19T07:36:25;21.50;99.90
18047;DHT22;9148;51.454;13.862;2022-08-19T07:38:58;21.50;99.90
18047;DHT22;9148;51.454;13.862;2022-08-19T07:41:27;21.50;99.90
18047;DHT22;9148;51.454;13.862;2022-08-19T07:43:54;21.50;99.90
18047;DHT22;9148;51.454;13.862;2022-08-19T07:46:20;21.50;99.90
18047;DHT22;9148;51.454;13.862;2022-08-19T07:48:48;21.60;99.90
18047;DHT22;9148;51.454;13.862;2022-08-19T07:51:18;21.60;99.90
18047;DHT22;9148;51.454;13.862;2022-08-19T07:53:45;21.70;99.90
18047;DHT22;9148;51.454;13.862;2022-08-19T07:56:14;21.70;99.90
18047;DHT22;9148;51.454;13.862;2022-08-19T07:58:42;21.80;99.90
18047;DHT22;9148;51.454;13.862;2022-08-19T08:01:13;21.90;99.90
18047;DHT22;9148;51.454;13.862;2022-08-19T08:03:41;21.90;99.90
18047;DHT22;9148;51.454;13.862;2022-08-19T08:06:28;22.00;99.90
18047;DHT22;9148;51.454;13.862;2022-08-19T08:09:38;22.10;99.90
18047;DHT22;9148;51.454;13.862;2022-08-19T08:12:12;22.10;99.90
18047;DHT22;9148;51.454;13.862;2022-08-19T08:14:51;22.30;99.90
18047;DHT22;9148;51.454;13.862;2022-08-19T08:17:21;22.30;99.90
18047;DHT22;9148;51.454;13.862;2022-08-19T08:19:49;22.40;99.90
18047;DHT22;9148;51.454;13.862;2022-08-19T08:22:18;22.50;99.90
18047;DHT22;9148;51.454;13.862;2022-08-19T08:25:20;22.50;99.90
18047;DHT22;9148;51.454;13.862;2022-08-19T08:27:48;22.60;99.90
18047;DHT22;9148;51.454;13.862;2022-08-19T08:30:18;22.70;99.90
18047;DHT22;9148;51.454;13.862;2022-08-19T08:32:45;22.70;99.90
18047;DHT22;9148;51.454;13.862;2022-08-19T08:35:13;22.80;99.90
18047;DHT22;9148;51.454;13.862;2022-08-19T08:37:42;22.80;99.90
18047;DHT22;9148;51.454;13.862;2022-08-19T08:40:42;22.90;99.90
18047;DHT22;9148;51.454;13.862;2022-08-19T08:43:36;22.90;99.90
18047;DHT22;9148;51.454;13.862;2022-08-19T08:46:10;23.00;99.90
18047;DHT22;9148;51.454;13.862;2022-08-19T08:51:37;22.90;99.90
18047;DHT22;9148;51.454;13.862;2022-08-19T08:54:07;22.90;99.90
18047;DHT22;9148;51.454;13.862;2022-08-19T08:56:38;22.90;99.90
18047;DHT22;9148;51.454;13.862;2022-08-19T08:59:12;22.90;99.90
18047;DHT22;9148;51.454;13.862;2022-08-19T09:01:47;22.90;99.90
18047;DHT22;9148;51.454;13.862;2022-08-19T09:04:13;22.90;99.90
18047;DHT22;9148;51.454;13.862;2022-08-19T09:06:57;22.90;99.90
18047;DHT22;9148;51.454;13.862;2022-08-19T09:09:45;22.80;99.90
18047;DHT22;9148;51.454;13.862;2022-08-19T09:12:39;22.80;99.90
18047;DHT22;9148;51.454;13.862;2022-08-19T09:15:52;22.70;99.90
18047;DHT22;9148;51.454;13.862;2022-08-19T09:18:18;22.70;99.90
18047;DHT22;9148;51.454;13.862;2022-08-19T09:20:45;22.70;99.90
18047;DHT22;9148;51.454;13.862;2022-08-19T09:23:12;22.70;99.90
18047;DHT22;9148;51.454;13.862;2022-08-19T09:25:38;22.70;99.90
18047;DHT22;9148;51.454;13.862;2022-08-19T09:28:05;22.70;99.90
18047;DHT22;9148;51.454;13.862;2022-08-19T09:30:34;22.90;99.90
18047;DHT22;9148;51.454;13.862;2022-08-19T09:33:05;22.90;99.90
18047;DHT22;9148;51.454;13.862;2022-08-19T09:35:32;23.00;99.90
18047;DHT22;9148;51.454;13.862;2022-08-19T09:37:59;23.10;99.90
18047;DHT22;9148;51.454;13.862;2022-08-19T09:40:28;23.20;99.90
18047;DHT22;9148;51.454;13.862;2022-08-19T09:42:55;23.30;99.90
18047;DHT22;9148;51.454;13.862;2022-08-19T09:45:22;23.40;99.90
18047;DHT22;9148;51.454;13.862;2022-08-19T09:47:50;23.60;99.90
18047;DHT22;9148;51.454;13.862;2022-08-19T09:50:17;23.80;99.90
18047;DHT22;9148;51.454;13.862;2022-08-19T09:52:44;24.10;99.90
18047;DHT22;9148;51.454;13.862;2022-08-19T09:55:11;24.30;99.90
18047;DHT22;9148;51.454;13.862;2022-08-19T09:57:37;24.50;99.90
18047;DHT22;9148;51.454;13.862;2022-08-19T10:00:06;24.60;99.90
18047;DHT22;9148;51.454;13.862;2022-08-19T10:02:33;24.80;99.90
18047;DHT22;9148;51.454;13.862;2022-08-19T10:04:59;24.90;99.90
18047;DHT22;9148;51.454;13.862;2022-08-19T10:07:44;25.00;99.90
18047;DHT22;9148;51.454;13.862;2022-08-19T10:10:10;25.00;99.90
18047;DHT22;9148;51.454;13.862;2022-08-19T10:12:36;24.90;99.90
18047;DHT22;9148;51.454;13.862;2022-08-19T10:15:03;24.90;99.90
18047;DHT22;9148;51.454;13.862;2022-08-19T10:17:30;24.90;99.90
18047;DHT22;9148;51.454;13.862;2022-08-19T10:19:58;24.90;99.90
18047;DHT22;9148;51.454;13.862;2022-08-19T10:22:24;24.80;99.90
18047;DHT22;9148;51.454;13.862;2022-08-19T10:24:50;24.70;99.90
18047;DHT22;9148;51.454;13.862;2022-08-19T10:27:17;24.60;99.90
18047;DHT22;9148;51.454;13.862;2022-08-19T10:29:42;24.50;99.90
18047;DHT22;9148;51.454;13.862;2022-08-19T10:32:09;24.40;99.90
18047;DHT22;9148;51.454;13.862;2022-08-19T10:34:36;24.40;99.90
18047;DHT22;9148;51.454;13.862;2022-08-19T10:37:04;24.30;99.90
18047;DHT22;9148;51.454;13.862;2022-08-19T10:39:32;24.20;99.90
18047;DHT22;9148;51.454;13.862;2022-08-19T10:42:07;24.20;99.90
18047;DHT22;9148;51.454;13.862;2022-08-19T10:44:36;24.10;99.90
18047;DHT22;9148;51.454;13.862;2022-08-19T10:47:02;24.10;99.90
18047;DHT22;9148;51.454;13.862;2022-08-19T10:49:28;24.10;99.90
18047;DHT22;9148;51.454;13.862;2022-08-19T10:51:58;24.20;99.90
18047;DHT22;9148;51.454;13.862;2022-08-19T10:54:42;24.30;99.90
18047;DHT22;9148;51.454;13.862;2022-08-19T10:57:29;24.30;99.90
18047;DHT22;9148;51.454;13.862;2022-08-19T10:59:56;24.40;99.90
18047;DHT22;9148;51.454;13.862;2022-08-19T11:02:22;24.40;99.90
18047;DHT22;9148;51.454;13.862;2022-08-19T11:04:48;24.50;99.90
18047;DHT22;9148;51.454;13.862;2022-08-19T11:07:15;24.50;99.90
18047;DHT22;9148;51.454;13.862;2022-08-19T11:09:41;24.60;99.90
18047;DHT22;9148;51.454;13.862;2022-08-19T11:12:08;24.60;99.90
18047;DHT22;9148;51.454;13.862;2022-08-19T11:14:35;24.70;99.90
18047;DHT22;9148;51.454;13.862;2022-08-19T11:17:02;24.80;99.90
18047;DHT22;9148;51.454;13.862;2022-08-19T11:19:29;24.90;99.90
18047;DHT22;9148;51.454;13.862;2022-08-19T11:21:55;25.00;99.90
18047;DHT22;9148;51.454;13.862;2022-08-19T11:24:23;25.00;99.90
18047;DHT22;9148;51.454;13.862;2022-08-19T11:26:51;25.00;99.90
18047;DHT22;9148;51.454;13.862;2022-08-19T11:29:20;25.00;99.90
18047;DHT22;9148;51.454;13.862;2022-08-19T11:31:48;25.00;99.90
18047;DHT22;9148;51.454;13.862;2022-08-19T11:34:20;24.90;99.90
18047;DHT22;9148;51.454;13.862;2022-08-19T11:36:47;24.80;99.90
18047;DHT22;9148;51.454;13.862;2022-08-19T11:39:17;24.70;99.90
18047;DHT22;9148;51.454;13.862;2022-08-19T11:41:45;24.70;99.90
18047;DHT22;9148;51.454;13.862;2022-08-19T11:44:11;24.70;99.90
18047;DHT22;9148;51.454;13.862;2022-08-19T11:46:39;24.60;99.90
18047;DHT22;9148;51.454;13.862;2022-08-19T11:49:06;24.60;99.90
18047;DHT22;9148;51.454;13.862;2022-08-19T11:51:33;24.60;99.90
18047;DHT22;9148;51.454;13.862;2022-08-19T11:54:00;24.60;99.90
18047;DHT22;9148;51.454;13.862;2022-08-19T11:56:27;24.60;99.90
18047;DHT22;9148;51.454;13.862;2022-08-19T11:58:54;24.60;99.90
18047;DHT22;9148;51.454;13.862;2022-08-19T12:01:22;24.60;99.90
18047;DHT22;9148;51.454;13.862;2022-08-19T12:03:50;24.70;99.90
18047;DHT22;9148;51.454;13.862;2022-08-19T12:06:20;24.80;99.90
18047;DHT22;9148;51.454;13.862;2022-08-19T12:08:55;24.80;99.90
18047;DHT22;9148;51.454;13.862;2022-08-19T12:11:22;24.80;99.90
18047;DHT22;9148;51.454;13.862;2022-08-19T12:13:48;24.80;99.90
18047;DHT22;9148;51.454;13.862;2022-08-19T12:16:16;24.80;99.90
18047;DHT22;9148;51.454;13.862;2022-08-19T12:18:44;24.80;99.90
18047;DHT22;9148;51.454;13.862;2022-08-19T12:21:14;24.80;99.90
18047;DHT22;9148;51.454;13.862;2022-08-19T12:23:42;24.80;99.90
18047;DHT22;9148;51.454;13.862;2022-08-19T12:26:10;24.90;99.90
18047;DHT22;9148;51.454;13.862;2022-08-19T12:28:36;24.90;99.90
18047;DHT22;9148;51.454;13.862;2022-08-19T12:31:02;25.00;99.90
18047;DHT22;9148;51.454;13.862;2022-08-19T12:33:28;25.00;99.90
18047;DHT22;9148;51.454;13.862;2022-08-19T12:35:54;24.90;99.90
18047;DHT22;9148;51.454;13.862;2022-08-19T12:38:21;24.80;99.90
18047;DHT22;9148;51.454;13.862;2022-08-19T12:40:49;24.70;99.90
18047;DHT22;9148;51.454;13.862;2022-08-19T12:43:17;24.60;99.90
18047;DHT22;9148;51.454;13.862;2022-08-19T12:45:42;24.50;99.90
18047;DHT22;9148;51.454;13.862;2022-08-19T12:48:09;24.40;99.90
18047;DHT22;9148;51.454;13.862;2022-08-19T12:50:35;24.30;99.90
18047;DHT22;9148;51.454;13.862;2022-08-19T12:53:00;24.20;99.90
18047;DHT22;9148;51.454;13.862;2022-08-19T12:55:26;24.10;99.90
18047;DHT22;9148;51.454;13.862;2022-08-19T12:57:54;24.00;99.90
18047;DHT22;9148;51.454;13.862;2022-08-19T13:00:21;23.90;99.90
18047;DHT22;9148;51.454;13.862;2022-08-19T13:02:50;23.80;99.90
18047;DHT22;9148;51.454;13.862;2022-08-19T13:05:20;23.70;99.90
18047;DHT22;9148;51.454;13.862;2022-08-19T13:07:50;23.60;99.90
18047;DHT22;9148;51.454;13.862;2022-08-19T13:10:20;23.50;99.90
18047;DHT22;9148;51.454;13.862;2022-08-19T13:12:48;23.40;99.90
18047;DHT22;9148;51.454;13.862;2022-08-19T13:15:17;23.40;99.90
18047;DHT22;9148;51.454;13.862;2022-08-19T13:17:48;23.40;99.90
18047;DHT22;9148;51.454;13.862;2022-08-19T13:20:17;23.30;99.90
18047;DHT22;9148;51.454;13.862;2022-08-19T13:22:45;23.20;99.90
18047;DHT22;9148;51.454;13.862;2022-08-19T13:25:12;23.20;99.90
18047;DHT22;9148;51.454;13.862;2022-08-19T13:27:39;23.10;99.90
18047;DHT22;9148;51.454;13.862;2022-08-19T13:30:08;23.10;99.90
18047;DHT22;9148;51.454;13.862;2022-08-19T13:32:54;23.00;99.90
18047;DHT22;9148;51.454;13.862;2022-08-19T13:35:46;23.00;99.90
18047;DHT22;9148;51.454;13.862;2022-08-19T13:38:18;23.00;99.90
18047;DHT22;9148;51.454;13.862;2022-08-19T13:40:46;22.90;99.90
18047;DHT22;9148;51.454;13.862;2022-08-19T13:43:13;23.00;99.90
18047;DHT22;9148;51.454;13.862;2022-08-19T13:45:39;23.00;99.90
18047;DHT22;9148;51.454;13.862;2022-08-19T13:48:06;23.00;99.90
18047;DHT22;9148;51.454;13.862;2022-08-19T13:50:37;22.90;99.90
18047;DHT22;9148;51.454;13.862;2022-08-19T13:53:07;22.90;99.90
18047;DHT22;9148;51.454;13.862;2022-08-19T13:55:34;22.90;99.90
18047;DHT22;9148;51.454;13.862;2022-08-19T13:58:00;22.90;99.90
18047;DHT22;9148;51.454;13.862;2022-08-19T14:00:30;22.90;99.90
18047;DHT22;9148;51.454;13.862;2022-08-19T14:02:58;22.90;99.90
18047;DHT22;9148;51.454;13.862;2022-08-19T14:05:25;22.90;99.90
18047;DHT22;9148;51.454;13.862;2022-08-19T14:07:52;22.90;99.90
18047;DHT22;9148;51.454;13.862;2022-08-19T14:10:19;22.90;99.90
18047;DHT22;9148;51.454;13.862;2022-08-19T14:12:46;23.00;99.90
18047;DHT22;9148;51.454;13.862;2022-08-19T14:15:13;23.00;99.90
18047;DHT22;9148;51.454;13.862;2022-08-19T14:17:41;23.00;99.90
18047;DHT22;9148;51.454;13.862;2022-08-19T14:20:09;23.00;99.90
18047;DHT22;9148;51.454;13.862;2022-08-19T14:22:38;23.10;99.90
18047;DHT22;9148;51.454;13.862;2022-08-19T14:25:06;23.00;99.90
18047;DHT22;9148;51.454;13.862;2022-08-19T14:27:36;23.00;99.90
18047;DHT22;9148;51.454;13.862;2022-08-19T14:30:05;23.00;99.90
18047;DHT22;9148;51.454;13.862;2022-08-19T14:32:32;23.00;99.90
18047;DHT22;9148;51.454;13.862;2022-08-19T14:34:58;23.00;99.90
18047;DHT22;9148;51.454;13.862;2022-08-19T14:37:24;23.00;99.90
18047;DHT22;9148;51.454;13.862;2022-08-19T14:39:50;23.00;99.90
18047;DHT22;9148;51.454;13.862;2022-08-19T14:42:16;23.00;99.90
18047;DHT22;9148;51.454;13.862;2022-08-19T14:44:42;23.00;99.90
18047;DHT22;9148;51.454;13.862;2022-08-19T14:47:09;23.00;99.90
18047;DHT22;9148;51.454;13.862;2022-08-19T14:49:35;22.90;99.90
18047;DHT22;9148;51.454;13.862;2022-08-19T14:52:01;22.90;99.90
18047;DHT22;9148;51.454;13.862;2022-08-19T14:54:28;22.90;99.90
18047;DHT22;9148;51.454;13.862;2022-08-19T14:56:54;22.80;99.90
18047;DHT22;9148;51.454;13.862;2022-08-19T14:59:20;22.80;99.90
18047;DHT22;9148;51.454;13.862;2022-08-19T15:01:45;22.80;99.90
18047;DHT22;9148;51.454;13.862;2022-08-19T15:04:11;22.80;99.90
18047;DHT22;9148;51.454;13.862;2022-08-19T15:06:37;22.80;99.90
18047;DHT22;9148;51.454;13.862;2022-08-19T15:09:03;22.70;99.90
18047;DHT22;9148;51.454;13.862;2022-08-19T15:11:29;22.70;99.90
18047;DHT22;9148;51.454;13.862;2022-08-19T15:13:58;22.70;99.90
18047;DHT22;9148;51.454;13.862;2022-08-19T15:16:25;22.70;99.90
18047;DHT22;9148;51.454;13.862;2022-08-19T15:18:55;22.70;99.90
18047;DHT22;9148;51.454;13.862;2022-08-19T15:21:23;22.70;99.90
18047;DHT22;9148;51.454;13.862;2022-08-19T15:23:50;22.70;99.90
18047;DHT22;9148;51.454;13.862;2022-08-19T15:26:18;22.70;99.90
18047;DHT22;9148;51.454;13.862;2022-08-19T15:28:45;22.70;99.90
18047;DHT22;9148;51.454;13.862;2022-08-19T15:31:12;22.80;99.90
18047;DHT22;9148;51.454;13.862;2022-08-19T15:33:39;22.80;99.90
18047;DHT22;9148;51.454;13.862;2022-08-19T15:36:10;22.80;99.90
18047;DHT22;9148;51.454;13.862;2022-08-19T15:38:37;22.90;99.90
18047;DHT22;9148;51.454;13.862;2022-08-19T15:41:05;23.00;99.90
18047;DHT22;9148;51.454;13.862;2022-08-19T15:44:10;23.10;99.90
18047;DHT22;9148;51.454;13.862;2022-08-19T15:46:40;23.30;99.90